Terminal Aerodrome Forecast
Issued by NWS

Home | Current Version | Previous Version | Text Only | Print | Product List | Glossary On
Versions: 1 2 3 4 5 6 7 8 9 10 11 12 13 14 15 16 17 18 19 20 21 22 23 24 25 26 27 28 29 30
000
FTUS41 KBTV 271135
TAFPBG
TAF
KPBG 271135Z 2712/2812 18006KT P6SM VCSH OVC050
     FM271800 22005KT P6SM VCSH BKN035
     FM280000 31004KT P6SM SCT035=

USA.gov is the U.S. government's official web portal to all federal, state and local government web resources and services.